Hauptseite
METAR-TAF:

METAR-TAF

Flughäfen :

Flugplatz St. Gallen-Altenrhein

St. Gallen, Schweiz

Breite: 47-29-06N, Länge: 009-33-43E, Höhe: 398 m

Beobachtung

Neuester Wetterbericht von vor 27 Minuten, um 00:50 UTC
Wind 1 kt aus unterschiedlichen Richtungen
Temperatur 1°C
Luftfeuchtigkeit 100%
Luftdruck 1037 hPa
Sichtweite: 5000 m
Geschlossene Wolkendecke in der Höhe von 5000 ft

METAR: LSZR 050050Z AUTO VRB01KT 5000 OVC050 01/01 Q1037

Zeit: 02:17 (01:17 UTC)

Prognose

Neuester Wetterbericht von vor 10 Stunden und 52 Minuten, um 14:25 UTC
Gültige Prognose vom 04 um 15 UTC bis 04 um 24 UTC
Wind 5 kt aus West/Nordwest
Sichtweite 10 km oder mehr
Aufgelockert bewölkt in der Höhe von 3000 ft
Durchbrochene Bewölkung in der Höhe von 4500 ft
Wahrscheinlichkeit 30%
vom 04 um 21 UTC bis 04 um 24 UTC
Durchbrochene Bewölkung in der Höhe von 1200 ft

TAF: LSZR 041425Z 0415/0424 30005KT 9999 SCT030 BKN045 PROB30 0421/0424 BKN012

Wetterbeobachtungen und Prognosen von mehr als 4000 Flughäfen (METAR und TAF Bericht).

Die verfügbaren Stationen werden durch gelbe und rote Markierungen auf der Karte dargestellt.

Führen Sie die Maus auf sie, um den Namen der Station zu sehen.

Darauf klicken, um die Beobachtung von Wetterbeobachtungen und Prognosen zu sehen.

Um die Karte zu ändern : klicken Sie auf den grünen Tasten mit einem schwarzen Kreuz Zum Vergrößern, auf den grünen Button mit einem Gedankenstrich zu verkleinern, oder auf die grünen Pfeile für benachbarte Karten.


METAR-TAF: